sensor_id;sensor_type;location;lat;lon;timestamp;pressure;altitude;pressure_sealevel;temperature;humidity
62011;BME280;47967;51.756;10.174;2024-02-15T05:00:51;99922.78;;;10.85;100.00
62011;BME280;47967;51.756;10.174;2024-02-15T05:05:00;99928.59;;;10.82;100.00
62011;BME280;47967;51.756;10.174;2024-02-15T05:09:02;99927.41;;;10.91;100.00
62011;BME280;47967;51.756;10.174;2024-02-15T05:13:08;99925.94;;;10.88;100.00
62011;BME280;47967;51.756;10.174;2024-02-15T05:17:17;99934.69;;;10.91;100.00
62011;BME280;47967;51.756;10.174;2024-02-15T05:21:20;99936.16;;;10.93;100.00
62011;BME280;47967;51.756;10.174;2024-02-15T05:25:22;99927.66;;;10.96;100.00
62011;BME280;47967;51.756;10.174;2024-02-15T05:29:27;99918.72;;;10.96;100.00
62011;BME280;47967;51.756;10.174;2024-02-15T05:33:31;99916.59;;;10.91;100.00
62011;BME280;47967;51.756;10.174;2024-02-15T05:37:34;99920.09;;;10.85;100.00
62011;BME280;47967;51.756;10.174;2024-02-15T05:41:37;99923.31;;;10.67;100.00
62011;BME280;47967;51.756;10.174;2024-02-15T05:45:39;99917.03;;;10.60;100.00
62011;BME280;47967;51.756;10.174;2024-02-15T05:49:43;99910.88;;;10.72;100.00
62011;BME280;47967;51.756;10.174;2024-02-15T05:53:47;99926.00;;;10.95;100.00
62011;BME280;47967;51.756;10.174;2024-02-15T05:57:51;99916.44;;;10.99;100.00
62011;BME280;47967;51.756;10.174;2024-02-15T06:01:54;99920.44;;;11.03;100.00
62011;BME280;47967;51.756;10.174;2024-02-15T06:05:57;99916.50;;;11.06;100.00
62011;BME280;47967;51.756;10.174;2024-02-15T06:10:01;99917.53;;;11.05;100.00
62011;BME280;47967;51.756;10.174;2024-02-15T06:14:05;99920.22;;;11.05;100.00
62011;BME280;47967;51.756;10.174;2024-02-15T06:18:08;99925.41;;;11.00;100.00
62011;BME280;47967;51.756;10.174;2024-02-15T06:22:14;99928.47;;;10.90;100.00
62011;BME280;47967;51.756;10.174;2024-02-15T06:26:17;99936.25;;;10.78;100.00
62011;BME280;47967;51.756;10.174;2024-02-15T06:30:20;99945.38;;;10.77;100.00
62011;BME280;47967;51.756;10.174;2024-02-15T06:34:42;99947.09;;;10.85;100.00
62011;BME280;47967;51.756;10.174;2024-02-15T06:39:03;99944.22;;;10.86;100.00
62011;BME280;47967;51.756;10.174;2024-02-15T06:43:23;99943.59;;;10.91;100.00
62011;BME280;47967;51.756;10.174;2024-02-15T06:47:25;99938.63;;;10.95;100.00
62011;BME280;47967;51.756;10.174;2024-02-15T06:51:28;99941.81;;;11.05;100.00
62011;BME280;47967;51.756;10.174;2024-02-15T06:55:32;99940.81;;;11.06;100.00
62011;BME280;47967;51.756;10.174;2024-02-15T06:59:35;99939.34;;;11.10;100.00
62011;BME280;47967;51.756;10.174;2024-02-15T07:03:38;99946.63;;;11.10;100.00
62011;BME280;47967;51.756;10.174;2024-02-15T07:07:41;99943.84;;;10.96;100.00
62011;BME280;47967;51.756;10.174;2024-02-15T07:11:45;99957.97;;;10.98;100.00
62011;BME280;47967;51.756;10.174;2024-02-15T07:15:52;99943.53;;;11.13;100.00
62011;BME280;47967;51.756;10.174;2024-02-15T07:19:54;99946.94;;;11.28;100.00
62011;BME280;47967;51.756;10.174;2024-02-15T07:23:57;99924.72;;;11.33;100.00
62011;BME280;47967;51.756;10.174;2024-02-15T07:28:01;99924.91;;;11.31;100.00
62011;BME280;47967;51.756;10.174;2024-02-15T07:32:04;99928.66;;;11.30;100.00
62011;BME280;47967;51.756;10.174;2024-02-15T07:36:07;99926.22;;;11.42;100.00
62011;BME280;47967;51.756;10.174;2024-02-15T07:40:10;99920.41;;;11.45;100.00
62011;BME280;47967;51.756;10.174;2024-02-15T07:44:16;99931.28;;;11.59;100.00
62011;BME280;47967;51.756;10.174;2024-02-15T07:48:19;99932.13;;;11.73;100.00
62011;BME280;47967;51.756;10.174;2024-02-15T07:52:22;99936.13;;;11.83;100.00
62011;BME280;47967;51.756;10.174;2024-02-15T07:56:24;99931.94;;;11.88;100.00
62011;BME280;47967;51.756;10.174;2024-02-15T08:00:28;99929.06;;;11.96;100.00
62011;BME280;47967;51.756;10.174;2024-02-15T08:04:31;99937.22;;;12.09;100.00
62011;BME280;47967;51.756;10.174;2024-02-15T08:08:35;99931.44;;;12.12;100.00
62011;BME280;47967;51.756;10.174;2024-02-15T08:12:39;99921.44;;;12.26;100.00
62011;BME280;47967;51.756;10.174;2024-02-15T08:16:43;99918.94;;;12.45;100.00
62011;BME280;47967;51.756;10.174;2024-02-15T08:20:45;99921.00;;;12.63;100.00
62011;BME280;47967;51.756;10.174;2024-02-15T08:24:48;99907.88;;;12.67;100.00
62011;BME280;47967;51.756;10.174;2024-02-15T08:28:50;99912.47;;;12.79;100.00
62011;BME280;47967;51.756;10.174;2024-02-15T08:32:55;99904.94;;;12.88;100.00
62011;BME280;47967;51.756;10.174;2024-02-15T08:36:59;99901.00;;;12.84;100.00
62011;BME280;47967;51.756;10.174;2024-02-15T08:41:02;99907.22;;;12.91;100.00
62011;BME280;47967;51.756;10.174;2024-02-15T08:45:06;99912.63;;;12.98;100.00
62011;BME280;47967;51.756;10.174;2024-02-15T08:49:11;99914.88;;;13.08;100.00
62011;BME280;47967;51.756;10.174;2024-02-15T08:53:15;99915.31;;;13.05;100.00
62011;BME280;47967;51.756;10.174;2024-02-15T08:57:20;99920.94;;;13.03;100.00
62011;BME280;47967;51.756;10.174;2024-02-15T09:01:23;99920.97;;;12.96;100.00
62011;BME280;47967;51.756;10.174;2024-02-15T09:05:27;99918.03;;;12.91;100.00
62011;BME280;47967;51.756;10.174;2024-02-15T09:09:29;99917.25;;;12.77;100.00
62011;BME280;47967;51.756;10.174;2024-02-15T09:13:32;99906.00;;;12.80;100.00
62011;BME280;47967;51.756;10.174;2024-02-15T09:17:38;99900.78;;;12.86;100.00
62011;BME280;47967;51.756;10.174;2024-02-15T09:21:43;99905.34;;;12.92;100.00
62011;BME280;47967;51.756;10.174;2024-02-15T09:25:45;99910.13;;;12.96;100.00
62011;BME280;47967;51.756;10.174;2024-02-15T09:29:51;99908.66;;;13.01;100.00
62011;BME280;47967;51.756;10.174;2024-02-15T09:33:55;99919.03;;;13.17;100.00
62011;BME280;47967;51.756;10.174;2024-02-15T09:38:01;99915.22;;;13.32;100.00
62011;BME280;47967;51.756;10.174;2024-02-15T09:42:04;99917.06;;;13.44;100.00
62011;BME280;47967;51.756;10.174;2024-02-15T09:46:06;99910.56;;;13.59;100.00
62011;BME280;47967;51.756;10.174;2024-02-15T09:50:09;99908.63;;;13.66;100.00
62011;BME280;47967;51.756;10.174;2024-02-15T09:54:16;99898.13;;;13.83;100.00
62011;BME280;47967;51.756;10.174;2024-02-15T09:58:23;99905.41;;;14.15;100.00
62011;BME280;47967;51.756;10.174;2024-02-15T10:02:26;99910.09;;;14.01;100.00
62011;BME280;47967;51.756;10.174;2024-02-15T10:06:29;99913.34;;;13.84;100.00
62011;BME280;47967;51.756;10.174;2024-02-15T10:10:33;99904.19;;;13.79;100.00
62011;BME280;47967;51.756;10.174;2024-02-15T10:14:36;99908.81;;;14.03;100.00
62011;BME280;47967;51.756;10.174;2024-02-15T10:18:39;99906.22;;;14.15;100.00
62011;BME280;47967;51.756;10.174;2024-02-15T10:22:42;99901.75;;;14.53;100.00
62011;BME280;47967;51.756;10.174;2024-02-15T10:26:46;99907.00;;;14.73;100.00
62011;BME280;47967;51.756;10.174;2024-02-15T10:30:50;99902.72;;;14.84;100.00
62011;BME280;47967;51.756;10.174;2024-02-15T10:34:54;99893.25;;;14.93;100.00
62011;BME280;47967;51.756;10.174;2024-02-15T10:39:03;99895.88;;;15.00;100.00
62011;BME280;47967;51.756;10.174;2024-02-15T10:43:13;99898.75;;;15.05;100.00
62011;BME280;47967;51.756;10.174;2024-02-15T10:47:18;99893.22;;;14.75;100.00
62011;BME280;47967;51.756;10.174;2024-02-15T10:51:21;99906.44;;;14.71;100.00
62011;BME280;47967;51.756;10.174;2024-02-15T10:55:29;99904.13;;;14.68;100.00
62011;BME280;47967;51.756;10.174;2024-02-15T10:59:37;99913.88;;;14.76;100.00
62011;BME280;47967;51.756;10.174;2024-02-15T11:03:44;99922.09;;;14.69;100.00
62011;BME280;47967;51.756;10.174;2024-02-15T11:07:55;99910.56;;;14.48;100.00
62011;BME280;47967;51.756;10.174;2024-02-15T11:11:58;99914.44;;;14.34;100.00
62011;BME280;47967;51.756;10.174;2024-02-15T11:16:03;99915.91;;;14.04;100.00
62011;BME280;47967;51.756;10.174;2024-02-15T11:20:06;99915.09;;;14.04;100.00
62011;BME280;47967;51.756;10.174;2024-02-15T11:24:24;99909.03;;;14.02;100.00
62011;BME280;47967;51.756;10.174;2024-02-15T11:28:40;99890.50;;;14.24;100.00
62011;BME280;47967;51.756;10.174;2024-02-15T11:32:44;99883.94;;;14.57;100.00
62011;BME280;47967;51.756;10.174;2024-02-15T11:36:50;99889.38;;;14.82;100.00
62011;BME280;47967;51.756;10.174;2024-02-15T11:40:59;99876.94;;;14.75;100.00
62011;BME280;47967;51.756;10.174;2024-02-15T11:45:02;99875.03;;;14.94;100.00
62011;BME280;47967;51.756;10.174;2024-02-15T11:49:07;99876.09;;;15.11;100.00
62011;BME280;47967;51.756;10.174;2024-02-15T11:53:19;99876.38;;;15.21;100.00
62011;BME280;47967;51.756;10.174;2024-02-15T11:57:21;99877.47;;;15.02;100.00
62011;BME280;47967;51.756;10.174;2024-02-15T12:01:37;99875.94;;;14.87;100.00
62011;BME280;47967;51.756;10.174;2024-02-15T12:05:59;99876.03;;;14.81;100.00
62011;BME280;47967;51.756;10.174;2024-02-15T12:10:20;99875.13;;;14.68;100.00
62011;BME280;47967;51.756;10.174;2024-02-15T12:14:40;99874.50;;;14.66;100.00
62011;BME280;47967;51.756;10.174;2024-02-15T12:19:00;99876.09;;;14.74;100.00
62011;BME280;47967;51.756;10.174;2024-02-15T12:23:06;99876.84;;;15.00;100.00
62011;BME280;47967;51.756;10.174;2024-02-15T12:27:09;99879.34;;;15.01;100.00
62011;BME280;47967;51.756;10.174;2024-02-15T12:31:13;99865.53;;;15.21;100.00
62011;BME280;47967;51.756;10.174;2024-02-15T12:35:16;99861.59;;;15.17;100.00
62011;BME280;47967;51.756;10.174;2024-02-15T12:39:25;99862.97;;;14.89;100.00
62011;BME280;47967;51.756;10.174;2024-02-15T12:43:29;99859.63;;;14.69;100.00
62011;BME280;47967;51.756;10.174;2024-02-15T12:47:31;99860.69;;;14.43;100.00
62011;BME280;47967;51.756;10.174;2024-02-15T12:51:34;99847.69;;;14.26;100.00
62011;BME280;47967;51.756;10.174;2024-02-15T12:55:40;99848.94;;;14.05;100.00
62011;BME280;47967;51.756;10.174;2024-02-15T12:59:43;99845.97;;;13.81;100.00
62011;BME280;47967;51.756;10.174;2024-02-15T13:03:45;99829.75;;;13.74;100.00
62011;BME280;47967;51.756;10.174;2024-02-15T13:07:48;99819.56;;;13.70;100.00
62011;BME280;47967;51.756;10.174;2024-02-15T13:11:52;99802.78;;;13.54;100.00
62011;BME280;47967;51.756;10.174;2024-02-15T13:15:55;99796.78;;;13.45;100.00
62011;BME280;47967;51.756;10.174;2024-02-15T13:19:59;99810.34;;;13.39;100.00
62011;BME280;47967;51.756;10.174;2024-02-15T13:24:05;99797.00;;;13.37;100.00
62011;BME280;47967;51.756;10.174;2024-02-15T13:28:09;99795.53;;;13.41;100.00
62011;BME280;47967;51.756;10.174;2024-02-15T13:32:14;99775.09;;;13.45;100.00
62011;BME280;47967;51.756;10.174;2024-02-15T13:36:18;99761.31;;;13.47;100.00
62011;BME280;47967;51.756;10.174;2024-02-15T13:40:21;99741.13;;;13.43;100.00
62011;BME280;47967;51.756;10.174;2024-02-15T13:44:26;99744.84;;;13.49;100.00
62011;BME280;47967;51.756;10.174;2024-02-15T13:48:29;99739.38;;;13.55;100.00
62011;BME280;47967;51.756;10.174;2024-02-15T13:52:33;99732.75;;;13.51;100.00
62011;BME280;47967;51.756;10.174;2024-02-15T13:56:35;99741.97;;;13.69;100.00
62011;BME280;47967;51.756;10.174;2024-02-15T14:00:39;99754.84;;;13.99;100.00
62011;BME280;47967;51.756;10.174;2024-02-15T14:04:43;99759.13;;;14.32;100.00
62011;BME280;47967;51.756;10.174;2024-02-15T14:08:46;99759.59;;;14.47;100.00
62011;BME280;47967;51.756;10.174;2024-02-15T14:12:50;99763.44;;;14.58;100.00
62011;BME280;47967;51.756;10.174;2024-02-15T14:16:55;99772.63;;;14.57;100.00
62011;BME280;47967;51.756;10.174;2024-02-15T14:20:58;99779.50;;;14.41;100.00
62011;BME280;47967;51.756;10.174;2024-02-15T14:25:01;99771.72;;;14.45;100.00
62011;BME280;47967;51.756;10.174;2024-02-15T14:29:06;99772.34;;;14.47;100.00
62011;BME280;47967;51.756;10.174;2024-02-15T14:33:12;99779.50;;;14.41;100.00
62011;BME280;47967;51.756;10.174;2024-02-15T14:37:23;99775.56;;;14.37;100.00
62011;BME280;47967;51.756;10.174;2024-02-15T14:41:25;99767.59;;;14.42;100.00
62011;BME280;47967;51.756;10.174;2024-02-15T14:45:34;99765.25;;;14.64;100.00
62011;BME280;47967;51.756;10.174;2024-02-15T14:49:39;99771.06;;;14.68;100.00
62011;BME280;47967;51.756;10.174;2024-02-15T14:53:41;99771.97;;;14.80;100.00
62011;BME280;47967;51.756;10.174;2024-02-15T14:57:45;99766.25;;;14.70;100.00
62011;BME280;47967;51.756;10.174;2024-02-15T15:01:48;99765.03;;;14.66;100.00
62011;BME280;47967;51.756;10.174;2024-02-15T15:05:52;99760.34;;;14.54;100.00
62011;BME280;47967;51.756;10.174;2024-02-15T15:10:12;99761.78;;;14.38;100.00
62011;BME280;47967;51.756;10.174;2024-02-15T15:14:33;99766.22;;;14.33;100.00
62011;BME280;47967;51.756;10.174;2024-02-15T15:18:36;99754.28;;;14.15;100.00
62011;BME280;47967;51.756;10.174;2024-02-15T15:22:40;99750.97;;;14.13;100.00
62011;BME280;47967;51.756;10.174;2024-02-15T15:26:43;99754.81;;;14.05;100.00
62011;BME280;47967;51.756;10.174;2024-02-15T15:30:45;99754.78;;;13.87;100.00
62011;BME280;47967;51.756;10.174;2024-02-15T15:34:50;99756.03;;;13.84;100.00
62011;BME280;47967;51.756;10.174;2024-02-15T15:38:54;99762.34;;;13.78;100.00
62011;BME280;47967;51.756;10.174;2024-02-15T15:42:56;99749.06;;;13.70;100.00
62011;BME280;47967;51.756;10.174;2024-02-15T15:46:59;99749.06;;;13.70;100.00
62011;BME280;47967;51.756;10.174;2024-02-15T15:51:02;99743.69;;;13.63;100.00
62011;BME280;47967;51.756;10.174;2024-02-15T15:55:08;99729.53;;;13.61;100.00
62011;BME280;47967;51.756;10.174;2024-02-15T15:59:12;99737.28;;;13.57;100.00
62011;BME280;47967;51.756;10.174;2024-02-15T16:03:14;99727.91;;;13.53;100.00
62011;BME280;47967;51.756;10.174;2024-02-15T16:07:17;99724.25;;;13.41;100.00
62011;BME280;47967;51.756;10.174;2024-02-15T16:11:21;99727.44;;;13.38;100.00
62011;BME280;47967;51.756;10.174;2024-02-15T16:15:23;99727.38;;;13.44;100.00
62011;BME280;47967;51.756;10.174;2024-02-15T16:19:26;99728.25;;;13.38;100.00
62011;BME280;47967;51.756;10.174;2024-02-15T16:23:30;99721.38;;;13.29;100.00
62011;BME280;47967;51.756;10.174;2024-02-15T16:27:33;99721.59;;;13.34;100.00
62011;BME280;47967;51.756;10.174;2024-02-15T16:31:36;99719.06;;;13.33;100.00
62011;BME280;47967;51.756;10.174;2024-02-15T16:35:38;99715.25;;;13.08;100.00
62011;BME280;47967;51.756;10.174;2024-02-15T16:39:41;99707.03;;;12.96;100.00
62011;BME280;47967;51.756;10.174;2024-02-15T16:43:45;99694.56;;;12.89;100.00
62011;BME280;47967;51.756;10.174;2024-02-15T16:47:50;99703.13;;;12.86;100.00
62011;BME280;47967;51.756;10.174;2024-02-15T16:51:54;99701.84;;;12.88;100.00
62011;BME280;47967;51.756;10.174;2024-02-15T16:55:58;99703.06;;;12.92;100.00
62011;BME280;47967;51.756;10.174;2024-02-15T17:00:02;99703.88;;;13.00;100.00
62011;BME280;47967;51.756;10.174;2024-02-15T17:04:06;99701.81;;;12.95;100.00
62011;BME280;47967;51.756;10.174;2024-02-15T17:08:10;99704.75;;;12.93;100.00
62011;BME280;47967;51.756;10.174;2024-02-15T17:12:13;99710.59;;;12.90;100.00
62011;BME280;47967;51.756;10.174;2024-02-15T17:16:17;99703.38;;;12.77;100.00
62011;BME280;47967;51.756;10.174;2024-02-15T17:20:20;99712.34;;;12.71;100.00
62011;BME280;47967;51.756;10.174;2024-02-15T17:24:24;99702.44;;;12.52;100.00
62011;BME280;47967;51.756;10.174;2024-02-15T17:28:27;99700.19;;;12.42;100.00
62011;BME280;47967;51.756;10.174;2024-02-15T17:32:31;99702.47;;;12.45;100.00
62011;BME280;47967;51.756;10.174;2024-02-15T17:36:33;99698.31;;;12.42;100.00
62011;BME280;47967;51.756;10.174;2024-02-15T17:40:36;99697.50;;;12.35;100.00
62011;BME280;47967;51.756;10.174;2024-02-15T17:44:39;99703.16;;;12.27;100.00
62011;BME280;47967;51.756;10.174;2024-02-15T17:48:47;99711.09;;;12.15;100.00
62011;BME280;47967;51.756;10.174;2024-02-15T17:52:49;99706.34;;;12.04;100.00
62011;BME280;47967;51.756;10.174;2024-02-15T17:56:52;99702.38;;;11.99;100.00
62011;BME280;47967;51.756;10.174;2024-02-15T18:00:55;99704.69;;;11.89;100.00
62011;BME280;47967;51.756;10.174;2024-02-15T18:04:59;99703.66;;;11.70;100.00
62011;BME280;47967;51.756;10.174;2024-02-15T18:09:02;99700.94;;;11.57;100.00
62011;BME280;47967;51.756;10.174;2024-02-15T18:13:04;99703.25;;;11.46;100.00
62011;BME280;47967;51.756;10.174;2024-02-15T18:17:07;99704.69;;;11.42;100.00
62011;BME280;47967;51.756;10.174;2024-02-15T18:21:11;99702.19;;;11.41;100.00
62011;BME280;47967;51.756;10.174;2024-02-15T18:25:14;99703.03;;;11.34;100.00
62011;BME280;47967;51.756;10.174;2024-02-15T18:29:16;99694.47;;;11.24;100.00
62011;BME280;47967;51.756;10.174;2024-02-15T18:33:19;99698.44;;;11.21;100.00
62011;BME280;47967;51.756;10.174;2024-02-15T18:37:23;99707.16;;;11.24;100.00
62011;BME280;47967;51.756;10.174;2024-02-15T18:41:26;99701.16;;;11.28;100.00
62011;BME280;47967;51.756;10.174;2024-02-15T18:45:28;99698.25;;;11.36;100.00
62011;BME280;47967;51.756;10.174;2024-02-15T18:49:31;99679.13;;;11.51;100.00
62011;BME280;47967;51.756;10.174;2024-02-15T18:53:42;99671.22;;;11.57;100.00
62011;BME280;47967;51.756;10.174;2024-02-15T18:57:45;99664.78;;;11.51;100.00
62011;BME280;47967;51.756;10.174;2024-02-15T19:01:47;99652.09;;;11.45;100.00
62011;BME280;47967;51.756;10.174;2024-02-15T19:05:50;99659.38;;;11.51;100.00
62011;BME280;47967;51.756;10.174;2024-02-15T19:09:54;99648.81;;;11.43;100.00
62011;BME280;47967;51.756;10.174;2024-02-15T19:13:58;99648.38;;;11.32;100.00
62011;BME280;47967;51.756;10.174;2024-02-15T19:18:01;99640.09;;;11.20;100.00
62011;BME280;47967;51.756;10.174;2024-02-15T19:22:07;99643.59;;;11.14;100.00
62011;BME280;47967;51.756;10.174;2024-02-15T19:26:13;99641.53;;;11.16;100.00
62011;BME280;47967;51.756;10.174;2024-02-15T19:30:15;99651.72;;;11.34;100.00
62011;BME280;47967;51.756;10.174;2024-02-15T19:34:19;99650.66;;;11.42;100.00
62011;BME280;47967;51.756;10.174;2024-02-15T19:38:26;99651.28;;;11.58;100.00
62011;BME280;47967;51.756;10.174;2024-02-15T19:42:30;99659.78;;;11.68;100.00
62011;BME280;47967;51.756;10.174;2024-02-15T19:46:33;99662.28;;;11.63;100.00
62011;BME280;47967;51.756;10.174;2024-02-15T19:50:39;99666.69;;;11.57;100.00
62011;BME280;47967;51.756;10.174;2024-02-15T19:54:42;99665.22;;;11.48;100.00
62011;BME280;47967;51.756;10.174;2024-02-15T19:58:46;99657.94;;;11.55;100.00
62011;BME280;47967;51.756;10.174;2024-02-15T20:02:49;99672.47;;;11.61;100.00
62011;BME280;47967;51.756;10.174;2024-02-15T20:06:54;99662.88;;;11.72;100.00
62011;BME280;47967;51.756;10.174;2024-02-15T20:10:57;99660.00;;;11.66;100.00
62011;BME280;47967;51.756;10.174;2024-02-15T20:15:00;99657.31;;;11.60;100.00
62011;BME280;47967;51.756;10.174;2024-02-15T20:19:03;99658.56;;;11.50;100.00
62011;BME280;47967;51.756;10.174;2024-02-15T20:23:06;99656.28;;;11.41;100.00
62011;BME280;47967;51.756;10.174;2024-02-15T20:27:08;99664.78;;;11.37;100.00
62011;BME280;47967;51.756;10.174;2024-02-15T20:31:13;99665.00;;;11.36;100.00
62011;BME280;47967;51.756;10.174;2024-02-15T20:35:18;99663.16;;;11.36;100.00
62011;BME280;47967;51.756;10.174;2024-02-15T20:39:21;99646.91;;;11.43;100.00
62011;BME280;47967;51.756;10.174;2024-02-15T20:43:23;99638.41;;;11.46;100.00
62011;BME280;47967;51.756;10.174;2024-02-15T20:47:27;99623.84;;;11.54;100.00
62011;BME280;47967;51.756;10.174;2024-02-15T20:51:31;99630.50;;;11.38;100.00
62011;BME280;47967;51.756;10.174;2024-02-15T20:55:35;99630.91;;;11.48;100.00
62011;BME280;47967;51.756;10.174;2024-02-15T20:59:39;99631.13;;;11.53;100.00
62011;BME280;47967;51.756;10.174;2024-02-15T21:03:43;99633.41;;;11.57;100.00
62011;BME280;47967;51.756;10.174;2024-02-15T21:07:48;99634.03;;;11.52;100.00
62011;BME280;47967;51.756;10.174;2024-02-15T21:11:51;99623.47;;;11.44;100.00
62011;BME280;47967;51.756;10.174;2024-02-15T21:15:53;99622.63;;;11.50;100.00
62011;BME280;47967;51.756;10.174;2024-02-15T21:19:57;99626.34;;;11.49;100.00
62011;BME280;47967;51.756;10.174;2024-02-15T21:24:00;99616.16;;;11.44;100.00
62011;BME280;47967;51.756;10.174;2024-02-15T21:28:02;99612.66;;;11.44;100.00
62011;BME280;47967;51.756;10.174;2024-02-15T21:32:05;99608.69;;;11.40;100.00
62011;BME280;47967;51.756;10.174;2024-02-15T21:36:10;99607.66;;;11.41;100.00
62011;BME280;47967;51.756;10.174;2024-02-15T21:40:13;99616.16;;;11.44;100.00
62011;BME280;47967;51.756;10.174;2024-02-15T21:44:16;99610.34;;;11.41;100.00
62011;BME280;47967;51.756;10.174;2024-02-15T21:48:19;99604.16;;;11.27;100.00
62011;BME280;47967;51.756;10.174;2024-02-15T21:52:23;99604.31;;;11.38;100.00
62011;BME280;47967;51.756;10.174;2024-02-15T21:56:26;99612.22;;;11.53;100.00
